Time;durP1;ratioP1;P1;durP2;ratioP2;P2;SDS_P1;SDS_P2;PMS_P1;PMS_P2;Temp;Humidity;BMP_temperature;BMP_pressure;BME280_temperature;BME280_humidity;BME280_pressure;Samples;Min_cycle;Max_cycle;Signal;HPM_P1;HPM_P2
2021/10/27 00:00:34;;;;;;;5.70;4.03;;;;;;;13.91;26.95;99404.69;5092086;28;20036;-65
2021/10/27 00:03:00;;;;;;;6.22;4.28;;;;;;;13.73;27.24;99405.06;5041499;28;20036;-66
2021/10/27 00:05:27;;;;;;;13.27;4.53;;;;;;;13.76;27.42;99393.22;5058105;28;20047;-65
2021/10/27 00:07:53;;;;;;;14.40;4.70;;;;;;;13.38;27.70;99376.41;5108122;28;20036;-65
2021/10/27 00:10:18;;;;;;;9.88;4.88;;;;;;;13.38;27.71;99384.41;5074321;28;20525;-66
2021/10/27 00:12:45;;;;;;;8.10;4.05;;;;;;;13.70;27.50;99401.94;5057463;28;20544;-66
2021/10/27 00:15:13;;;;;;;8.07;3.88;;;;;;;13.72;27.80;99405.25;5057365;28;20520;-66
2021/10/27 00:17:39;;;;;;;7.43;3.95;;;;;;;13.50;27.83;99410.47;5090879;28;20044;-65
2021/10/27 00:20:06;;;;;;;10.13;4.18;;;;;;;13.89;27.43;99412.06;5092065;28;20047;-67
2021/10/27 00:22:32;;;;;;;7.53;4.18;;;;;;;13.84;27.25;99387.78;5074110;28;20126;-66
2021/10/27 00:24:58;;;;;;;8.82;4.43;;;;;;;13.76;27.30;99390.53;5040982;28;20531;-65
2021/10/27 00:27:24;;;;;;;11.82;4.60;;;;;;;13.73;27.35;99372.22;5074106;28;20040;-66
2021/10/27 00:29:50;;;;;;;13.70;4.45;;;;;;;13.69;27.23;99362.91;5040782;28;20093;-65
2021/10/27 00:32:15;;;;;;;10.10;4.35;;;;;;;13.66;27.35;99389.97;5074277;28;20048;-65
2021/10/27 00:34:41;;;;;;;9.30;4.35;;;;;;;13.77;27.31;99381.50;5073960;28;20089;-65
2021/10/27 00:37:07;;;;;;;10.25;4.20;;;;;;;13.46;27.24;99349.66;5073625;28;20032;-66
2021/10/27 00:39:34;;;;;;;10.18;4.57;;;;;;;13.23;27.79;99376.41;5073854;28;20043;-65
2021/10/27 00:42:01;;;;;;;10.02;4.45;;;;;;;13.50;27.59;99353.63;5057306;28;20040;-66
2021/10/27 00:44:27;;;;;;;10.88;4.70;;;;;;;13.53;28.19;99372.75;5091967;28;20406;-67
2021/10/27 00:47:07;;;;;;;13.70;4.20;;;;;;;14.15;27.25;99375.84;5073775;28;20119;-65
2021/10/27 00:49:36;;;;;;;11.13;4.70;;;;;;;13.98;27.04;99352.22;5056916;28;20071;-64
2021/10/27 00:52:05;;;;;;;9.30;4.60;;;;;;;14.26;26.96;99361.22;5091432;28;20403;-66
2021/10/27 00:54:32;;;;;;;10.35;4.60;;;;;;;13.83;27.18;99333.56;5090494;28;20495;-69
2021/10/27 00:56:59;;;;;;;13.05;4.53;;;;;;;13.84;27.23;99359.22;5073629;28;20582;-67
2021/10/27 00:59:25;;;;;;;11.23;4.60;;;;;;;13.42;28.01;99359.06;5022920;28;20092;-65
2021/10/27 01:01:52;;;;;;;10.05;4.40;;;;;;;13.40;28.01;99356.56;5073261;28;20044;-66
2021/10/27 01:04:18;;;;;;;11.77;4.70;;;;;;;13.60;27.50;99338.16;5107117;28;20040;-65
2021/10/27 01:06:44;;;;;;;13.73;4.47;;;;;;;13.83;27.61;99352.25;5039919;28;20047;-66
2021/10/27 01:09:10;;;;;;;9.90;4.72;;;;;;;13.53;27.64;99354.09;5056529;28;20044;-64
2021/10/27 01:11:37;;;;;;;8.68;4.88;;;;;;;13.98;27.30;99346.88;5091202;28;20097;-66
2021/10/27 01:14:07;;;;;;;6.57;4.22;;;;;;;14.13;27.27;99342.34;5056437;28;20040;-66
2021/10/27 01:16:33;;;;;;;14.30;5.00;;;;;;;13.13;28.39;99335.81;5091034;28;20048;-64
2021/10/27 01:18:59;;;;;;;9.13;4.25;;;;;;;13.54;27.81;99350.44;5091212;28;20195;-65
2021/10/27 01:21:29;;;;;;;9.77;4.78;;;;;;;13.80;27.52;99336.59;5091331;28;20047;-66
2021/10/27 01:23:55;;;;;;;9.88;4.75;;;;;;;13.40;27.94;99337.91;5072921;28;20089;-65
2021/10/27 01:26:20;;;;;;;7.57;4.50;;;;;;;13.37;28.07;99346.28;5106605;28;20326;-66
2021/10/27 01:28:46;;;;;;;10.75;4.32;;;;;;;13.13;28.38;99327.81;5072958;28;20130;-66
2021/10/27 01:31:13;;;;;;;10.70;4.32;;;;;;;13.93;27.79;99327.94;5090764;28;20048;-66
2021/10/27 01:33:40;;;;;;;12.57;4.47;;;;;;;13.82;27.78;99337.25;5072840;28;20044;-64
2021/10/27 01:36:06;;;;;;;7.72;4.13;;;;;;;13.40;27.63;99300.56;5056027;28;20487;-66
2021/10/27 01:38:33;;;;;;;5.82;3.88;;;;;;;13.78;27.87;99330.59;5039372;28;20100;-65
2021/10/27 01:41:00;;;;;;;8.50;4.25;;;;;;;13.32;28.38;99335.31;5106707;28;20051;-65
2021/10/27 01:43:26;;;;;;;7.50;4.32;;;;;;;13.43;28.17;99308.19;5072443;28;20051;-65
2021/10/27 01:45:51;;;;;;;11.25;4.93;;;;;;;13.26;28.08;99292.53;5055640;28;20036;-65
2021/10/27 01:48:17;;;;;;;12.88;4.70;;;;;;;13.70;27.68;99327.22;5023010;28;20104;-66
2021/10/27 01:50:44;;;;;;;12.43;4.70;;;;;;;13.80;27.65;99301.91;5072341;28;20093;-65
2021/10/27 01:53:11;;;;;;;10.35;4.25;;;;;;;13.46;28.01;99339.00;5072156;28;20461;-65
2021/10/27 01:55:37;;;;;;;13.63;5.17;;;;;;;13.14;28.60;99315.34;5055344;28;20356;-65
2021/10/27 01:58:03;;;;;;;13.82;4.65;;;;;;;13.19;28.63;99318.28;5090149;28;20089;-66
2021/10/27 02:00:29;;;;;;;8.00;4.00;;;;;;;13.37;28.39;99308.09;5072465;28;20396;-65
2021/10/27 02:02:55;;;;;;;17.35;4.93;;;;;;;13.01;28.59;99305.28;5055532;28;20044;-66
2021/10/27 02:05:21;;;;;;;8.90;4.63;;;;;;;12.97;28.76;99317.31;5090042;28;20063;-66
2021/10/27 02:07:47;;;;;;;10.73;4.60;;;;;;;13.14;28.47;99310.84;5054057;28;20099;-66
2021/10/27 02:10:13;;;;;;;8.43;4.50;;;;;;;13.14;28.97;99307.34;5052543;28;20494;-66
2021/10/27 02:12:40;;;;;;;10.23;4.35;;;;;;;13.31;28.81;99312.34;5051620;28;20044;-66
2021/10/27 02:15:08;;;;;;;10.52;4.63;;;;;;;13.37;28.95;99306.25;5086381;28;20036;-65
2021/10/27 02:17:36;;;;;;;7.70;4.50;;;;;;;12.84;29.23;99305.59;5052962;28;20071;-66
2021/10/27 02:20:03;;;;;;;11.68;4.85;;;;;;;13.16;29.24;99308.00;5052819;28;20043;-66
2021/10/27 02:22:29;;;;;;;9.13;4.50;;;;;;;12.72;29.45;99291.88;5088294;28;20139;-67
2021/10/27 02:24:55;;;;;;;11.50;5.28;;;;;;;12.76;29.27;99279.84;5069840;28;20143;-65
2021/10/27 02:27:21;;;;;;;9.68;4.47;;;;;;;12.98;29.21;99289.63;5071159;28;20051;-66
2021/10/27 02:29:46;;;;;;;8.77;4.35;;;;;;;12.75;29.45;99294.19;5089873;28;20105;-65
2021/10/27 02:32:12;;;;;;;12.20;4.82;;;;;;;12.93;29.27;99286.66;5055019;28;20130;-68
2021/10/27 02:34:38;;;;;;;6.63;4.25;;;;;;;12.83;29.42;99286.13;5055034;28;20036;-65
2021/10/27 02:37:04;;;;;;;9.68;4.80;;;;;;;12.37;29.73;99251.72;5055118;28;20131;-68
2021/10/27 02:39:30;;;;;;;11.50;4.30;;;;;;;13.09;29.36;99278.56;5072007;28;20051;-65
2021/10/27 02:41:56;;;;;;;9.40;4.70;;;;;;;12.78;29.61;99283.16;5054978;28;20043;-66
2021/10/27 02:44:21;;;;;;;14.60;4.03;;;;;;;12.74;29.95;99271.22;5054701;28;20032;-65
2021/10/27 02:46:48;;;;;;;9.85;4.38;;;;;;;12.73;29.94;99271.41;5054108;28;20044;-66
2021/10/27 02:49:15;;;;;;;6.97;4.20;;;;;;;12.44;30.38;99266.00;5054988;28;20127;-65
2021/10/27 02:51:41;;;;;;;9.25;4.47;;;;;;;12.51;30.35;99262.44;5054544;28;20043;-65
2021/10/27 02:54:07;;;;;;;16.37;4.80;;;;;;;12.82;30.22;99278.31;5089241;28;20380;-65
2021/10/27 02:56:33;;;;;;;11.00;4.70;;;;;;;12.35;30.30;99217.28;5089093;28;20044;-65
2021/10/27 02:58:59;;;;;;;8.95;4.70;;;;;;;12.65;30.08;99242.16;5071160;28;20052;-66
2021/10/27 03:01:25;;;;;;;8.13;4.45;;;;;;;12.52;30.05;99233.94;5088812;28;20044;-65
2021/10/27 03:03:52;;;;;;;9.75;4.82;;;;;;;12.64;30.02;99253.81;5071264;28;20142;-65
2021/10/27 03:06:18;;;;;;;7.47;4.77;;;;;;;12.65;30.17;99263.47;5089313;28;20047;-65
2021/10/27 03:08:45;;;;;;;9.07;4.65;;;;;;;12.14;30.17;99171.03;5054395;28;20040;-66
2021/10/27 03:11:13;;;;;;;12.73;4.88;;;;;;;12.65;30.43;99258.97;5053893;28;20044;-65
2021/10/27 03:13:40;;;;;;;6.80;4.40;;;;;;;12.79;30.23;99252.00;5070348;28;20051;-65
2021/10/27 03:16:06;;;;;;;12.60;4.63;;;;;;;12.86;30.23;99252.94;5088930;28;20056;-66
2021/10/27 03:18:32;;;;;;;9.87;4.40;;;;;;;12.69;30.26;99252.25;5089886;28;20066;-66
2021/10/27 03:20:58;;;;;;;6.90;4.70;;;;;;;12.63;30.26;99255.66;5089790;28;20507;-65
2021/10/27 03:23:23;;;;;;;14.40;5.03;;;;;;;12.56;30.35;99240.56;5092911;28;20056;-65
2021/10/27 03:25:49;;;;;;;10.83;4.13;;;;;;;12.43;30.40;99209.22;5075705;28;20035;-65
2021/10/27 03:28:15;;;;;;;11.23;4.83;;;;;;;12.59;30.52;99230.38;5059172;28;20043;-65
2021/10/27 03:30:41;;;;;;;12.63;5.50;;;;;;;12.51;30.46;99226.97;5074990;28;20559;-67
2021/10/27 03:33:08;;;;;;;11.10;4.37;;;;;;;12.46;30.63;99221.34;5093780;28;20048;-65
2021/10/27 03:35:34;;;;;;;9.50;4.70;;;;;;;12.49;30.50;99234.28;5042494;28;20042;-65
2021/10/27 03:38:00;;;;;;;7.47;4.87;;;;;;;12.35;30.81;99229.75;5075940;28;20043;-65
2021/10/27 03:40:26;;;;;;;8.25;4.70;;;;;;;12.23;31.24;99212.53;5093157;28;20055;-70
2021/10/27 03:42:51;;;;;;;11.70;4.93;;;;;;;12.37;31.11;99215.28;5092443;28;20071;-67
2021/10/27 03:45:18;;;;;;;9.95;5.68;;;;;;;12.24;30.91;99188.41;5058771;28;20081;-67
2021/10/27 03:47:44;;;;;;;9.07;4.80;;;;;;;12.36;31.12;99232.22;5041813;28;20043;-67
2021/10/27 03:50:13;;;;;;;9.80;4.87;;;;;;;12.26;31.17;99210.38;5041084;28;20580;-68
2021/10/27 03:52:40;;;;;;;7.67;4.73;;;;;;;12.35;31.09;99217.28;5058743;28;20205;-67
2021/10/27 03:55:06;;;;;;;10.05;5.38;;;;;;;12.35;31.16;99214.59;5058359;28;20047;-67
2021/10/27 03:57:32;;;;;;;10.37;4.60;;;;;;;12.32;31.23;99212.31;5042406;28;20044;-67
2021/10/27 03:59:59;;;;;;;10.20;5.03;;;;;;;12.15;31.38;99202.78;5041819;28;20507;-68
2021/10/27 04:02:25;;;;;;;12.53;5.07;;;;;;;12.19;31.48;99228.06;5058482;28;20265;-67
2021/10/27 04:04:51;;;;;;;10.97;4.97;;;;;;;12.06;31.77;99219.84;5092913;28;20127;-66
2021/10/27 04:07:17;;;;;;;12.87;5.10;;;;;;;11.92;31.75;99182.53;5092557;28;20422;-66
2021/10/27 04:09:42;;;;;;;13.07;5.50;;;;;;;12.06;31.86;99216.34;5074864;28;20032;-67
2021/10/27 04:12:09;;;;;;;10.73;5.57;;;;;;;12.01;31.71;99210.75;5092052;28;20045;-67
2021/10/27 04:14:35;;;;;;;9.67;5.40;;;;;;;11.80;32.23;99211.38;5073388;28;20074;-68
2021/10/27 04:17:02;;;;;;;12.70;5.33;;;;;;;11.92;32.20;99187.84;5073486;28;20060;-68
2021/10/27 04:19:27;;;;;;;13.20;5.43;;;;;;;11.93;32.09;99212.44;5057724;28;20046;-68
2021/10/27 04:21:53;;;;;;;9.07;5.07;;;;;;;11.70;32.40;99174.34;5058314;28;20048;-70
2021/10/27 04:24:19;;;;;;;9.77;5.40;;;;;;;12.02;32.12;99197.25;5057676;28;20093;-68
2021/10/27 04:26:45;;;;;;;9.10;4.67;;;;;;;12.16;31.81;99185.00;5056628;28;20056;-69
2021/10/27 04:29:11;;;;;;;9.83;4.97;;;;;;;11.93;31.86;99191.16;5041697;28;20039;-69
2021/10/27 04:31:37;;;;;;;10.97;6.10;;;;;;;12.19;31.47;99180.16;5074442;28;20055;-70
2021/10/27 04:34:03;;;;;;;10.03;5.00;;;;;;;11.96;32.17;99195.31;5057130;28;20048;-70
2021/10/27 04:36:29;;;;;;;9.30;4.90;;;;;;;12.05;32.20;99190.72;5056432;28;20064;-71
2021/10/27 04:38:55;;;;;;;9.90;5.20;;;;;;;12.28;31.54;99180.88;5040074;28;20086;-66
2021/10/27 04:41:21;;;;;;;10.30;4.83;;;;;;;12.09;31.86;99194.69;5074485;28;20040;-67
2021/10/27 04:43:47;;;;;;;15.03;5.90;;;;;;;12.05;31.88;99148.16;5092626;28;20130;-67
2021/10/27 04:46:13;;;;;;;14.93;5.70;;;;;;;12.32;31.26;99180.34;5074407;28;20123;-67
2021/10/27 04:48:39;;;;;;;8.90;4.93;;;;;;;12.24;31.61;99179.59;5074262;28;20158;-67
2021/10/27 04:51:05;;;;;;;8.32;4.90;;;;;;;11.97;32.20;99172.16;5092603;28;20055;-66
2021/10/27 04:53:30;;;;;;;10.80;5.25;;;;;;;12.04;32.00;99187.22;5058013;28;20399;-68
2021/10/27 04:55:56;;;;;;;8.38;5.38;;;;;;;12.21;31.73;99171.97;5074075;28;20040;-69
2021/10/27 04:58:22;;;;;;;9.57;5.03;;;;;;;12.62;31.21;99173.25;5072710;28;20381;-67
2021/10/27 05:00:53;;;;;;;7.17;5.10;;;;;;;12.64;31.34;99182.69;5055952;28;20066;-66
2021/10/27 05:03:19;;;;;;;9.05;4.93;;;;;;;12.39;30.98;99175.13;5058964;28;20139;-67
2021/10/27 05:05:49;;;;;;;11.47;5.07;;;;;;;12.70;31.04;99197.97;5055158;28;20187;-68
2021/10/27 05:08:17;;;;;;;12.38;4.97;;;;;;;12.92;30.95;99181.06;5072284;28;20143;-68
2021/10/27 05:10:43;;;;;;;9.88;5.03;;;;;;;12.90;30.75;99185.75;5088035;28;20050;-67
2021/10/27 05:13:09;;;;;;;9.13;5.05;;;;;;;13.13;30.38;99186.50;5069282;28;20040;-67
2021/10/27 05:15:35;;;;;;;12.18;5.22;;;;;;;12.81;30.29;99184.19;5071234;28;20055;-66
2021/10/27 05:18:01;;;;;;;7.47;4.65;;;;;;;12.13;31.44;99180.84;5089762;28;20070;-65
2021/10/27 05:20:27;;;;;;;13.90;5.00;;;;;;;12.87;30.66;99153.34;5088061;28;20036;-66
2021/10/27 05:22:52;;;;;;;12.52;4.97;;;;;;;12.84;30.60;99137.72;5070292;28;20032;-65
2021/10/27 05:25:18;;;;;;;11.82;5.45;;;;;;;13.01;30.60;99171.16;5069784;28;20040;-68
2021/10/27 05:27:44;;;;;;;13.45;5.05;;;;;;;12.97;30.78;99175.19;5088858;28;20044;-67
2021/10/27 05:30:10;;;;;;;13.00;4.95;;;;;;;13.06;30.42;99185.63;5070144;28;20105;-66
2021/10/27 05:32:36;;;;;;;9.07;5.05;;;;;;;12.97;30.45;99169.84;5088920;28;20067;-65
2021/10/27 05:35:02;;;;;;;11.00;4.70;;;;;;;13.20;30.37;99163.44;5090697;28;20048;-66
2021/10/27 05:37:29;;;;;;;10.95;5.28;;;;;;;13.05;30.48;99173.28;5072385;28;20050;-66
2021/10/27 05:39:55;;;;;;;10.43;5.07;;;;;;;13.46;29.96;99174.44;5072130;28;20412;-66
2021/10/27 05:42:22;;;;;;;8.23;4.65;;;;;;;13.10;30.11;99173.56;5072417;28;20130;-67
2021/10/27 05:44:50;;;;;;;12.13;5.18;;;;;;;13.46;29.74;99145.09;5072028;28;20035;-67
2021/10/27 05:47:16;;;;;;;13.07;5.28;;;;;;;13.67;29.87;99168.28;5090167;28;20040;-66
2021/10/27 05:50:08;;;;;;;9.07;5.18;;;;;;;13.43;29.75;99153.47;5072125;28;20579;-66
2021/10/27 05:55:27;;;;;;;10.15;4.97;;;;;;;13.78;29.24;99180.34;5090143;28;20040;-66
2021/10/27 05:57:54;;;;;;;9.75;5.07;;;;;;;14.01;29.10;99160.44;5059415;28;20040;-66
2021/10/27 06:00:20;;;;;;;12.85;5.25;;;;;;;13.56;29.60;99158.13;5090333;28;20089;-66
2021/10/27 06:02:45;;;;;;;14.73;4.97;;;;;;;13.17;30.19;99139.81;5072107;28;20035;-67
2021/10/27 06:05:11;;;;;;;11.77;5.18;;;;;;;13.63;29.70;99158.19;5055328;28;20138;-67
2021/10/27 06:07:38;;;;;;;45.28;20.83;;;;;;;13.45;29.79;99132.75;5071643;28;20043;-66
2021/10/27 06:10:05;;;;;;;11.18;5.25;;;;;;;13.96;29.34;99156.69;5038702;28;20126;-67
2021/10/27 06:12:31;;;;;;;12.73;5.57;;;;;;;13.82;29.44;99162.91;5072295;28;20134;-67
2021/10/27 06:14:57;;;;;;;9.98;4.70;;;;;;;13.18;30.29;99153.97;5071674;28;20131;-67
2021/10/27 06:17:23;;;;;;;12.98;5.13;;;;;;;13.48;29.68;99159.03;5089470;28;20056;-68
2021/10/27 06:19:52;;;;;;;11.25;5.35;;;;;;;13.73;29.39;99154.19;5090059;28;20036;-66
2021/10/27 06:22:19;;;;;;;11.57;5.45;;;;;;;13.87;29.34;99141.81;5089871;28;20044;-67
2021/10/27 06:24:45;;;;;;;11.70;5.30;;;;;;;13.43;29.78;99161.47;5055120;28;20051;-67
2021/10/27 06:27:11;;;;;;;8.95;5.25;;;;;;;13.94;29.36;99162.22;5054815;28;20040;-67
2021/10/27 06:30:02;;;;;;;11.70;5.47;;;;;;;14.26;29.09;99152.88;5071582;28;20035;-67
2021/10/27 06:35:02;;;;;;;10.63;5.85;;;;;;;13.94;29.36;99154.22;5089506;28;20108;-67
2021/10/27 06:48:26;;;;;;;16.08;5.43;;;;;;;14.62;28.44;99122.31;5089209;28;20553;-67
2021/10/27 06:50:52;;;;;;;10.73;5.20;;;;;;;14.51;28.35;99109.50;5054480;28;20047;-68
2021/10/27 06:53:19;;;;;;;12.90;6.05;;;;;;;14.25;28.61;99116.50;5071006;28;20446;-67
2021/10/27 06:55:45;;;;;;;13.73;5.45;;;;;;;14.59;28.39;99121.88;5071375;28;20122;-67
2021/10/27 06:58:13;;;;;;;17.85;5.90;;;;;;;13.72;29.58;99123.19;5073946;28;20044;-67
2021/10/27 07:00:44;;;;;;;18.48;6.28;;;;;;;13.86;29.91;99126.81;5093559;28;20415;-68
2021/10/27 07:03:44;;;;;;;14.07;6.05;;;;;;;14.46;28.89;99111.94;5075867;28;20079;-68
2021/10/27 07:16:37;;;;;;;12.73;5.53;;;;;;;13.92;29.73;99128.69;5093658;28;20066;-67
2021/10/27 07:19:03;;;;;;;11.93;6.20;;;;;;;14.93;28.19;99103.97;5093338;28;20433;-66
2021/10/27 07:21:29;;;;;;;14.15;6.10;;;;;;;15.14;28.08;99095.03;5074931;28;20079;-70
2021/10/27 07:23:55;;;;;;;14.88;5.97;;;;;;;15.17;27.95;99106.16;5093238;28;20380;-68
2021/10/27 07:26:21;;;;;;;11.00;6.10;;;;;;;15.23;27.83;99104.53;5058604;28;20044;-68
2021/10/27 07:28:52;;;;;;;22.42;6.35;;;;;;;14.29;29.34;99099.06;5075271;28;20048;-67
2021/10/27 07:31:20;;;;;;;15.10;5.93;;;;;;;14.23;29.07;99091.78;5059014;28;20054;-68
2021/10/27 07:33:56;;;;;;;17.38;5.57;;;;;;;14.47;28.81;99084.19;5075573;28;20046;-68
2021/10/27 07:41:31;;;;;;;16.02;6.05;;;;;;;14.88;28.65;99078.88;5077907;28;20126;-69
2021/10/27 07:43:58;;;;;;;11.32;6.07;;;;;;;14.65;28.63;99067.66;5058602;28;20127;-69
2021/10/27 07:46:24;;;;;;;12.73;7.13;;;;;;;15.06;28.27;99077.31;5093231;28;20048;-68
2021/10/27 07:48:51;;;;;;;13.48;6.35;;;;;;;14.87;28.41;99071.84;5074889;28;20043;-68
2021/10/27 07:51:17;;;;;;;9.95;5.82;;;;;;;14.42;29.29;99061.75;5057118;28;20507;-68
2021/10/27 07:53:43;;;;;;;15.07;6.00;;;;;;;14.81;28.64;99065.47;5057896;28;20491;-67
2021/10/27 07:56:09;;;;;;;15.20;6.35;;;;;;;14.97;28.58;99078.50;5074462;28;20048;-66
2021/10/27 07:58:36;;;;;;;13.32;6.22;;;;;;;15.06;28.13;99050.56;5074796;28;20143;-67
2021/10/27 08:01:02;;;;;;;9.82;5.20;;;;;;;15.34;28.24;99057.63;5092804;28;20063;-67
2021/10/27 08:03:32;;;;;;;15.35;6.68;;;;;;;15.12;28.66;99083.69;5092282;28;20032;-68
2021/10/27 08:06:06;;;;;;;19.38;7.65;;;;;;;14.79;28.46;99094.22;5074373;28;20044;-67
2021/10/27 08:08:32;;;;;;;13.77;6.28;;;;;;;15.45;28.07;99055.22;5074586;28;20089;-68
2021/10/27 08:10:59;;;;;;;10.10;6.03;;;;;;;15.86;27.50;99082.66;5073907;28;20055;-67
2021/10/27 08:13:25;;;;;;;22.40;6.60;;;;;;;14.64;28.33;99036.59;5056867;28;20372;-67
2021/10/27 08:15:51;;;;;;;14.93;6.63;;;;;;;15.81;27.58;99071.72;5091965;28;20052;-68
2021/10/27 08:18:17;;;;;;;16.88;7.13;;;;;;;15.70;27.33;99058.16;5073519;28;20053;-68
2021/10/27 08:20:45;;;;;;;19.13;6.88;;;;;;;15.86;27.80;99047.84;5057293;28;20042;-67
2021/10/27 08:23:13;;;;;;;17.60;8.20;;;;;;;16.03;27.59;99081.22;5057461;28;20181;-67
2021/10/27 08:28:12;;;;;;;16.73;7.00;;;;;;;16.36;27.31;99047.19;5092021;28;20040;-67
2021/10/27 08:30:49;;;;;;;12.82;6.72;;;;;;;16.19;27.13;99045.16;5073536;28;20135;-67
2021/10/27 08:33:25;;;;;;;14.13;7.03;;;;;;;15.51;27.94;99059.75;5074790;28;20070;-67
2021/10/27 08:35:52;;;;;;;11.23;6.38;;;;;;;15.50;28.40;99047.38;5058409;28;20040;-67
2021/10/27 08:38:17;;;;;;;12.57;7.10;;;;;;;15.36;28.32;99058.25;5091828;28;20040;-66
2021/10/27 08:40:47;;;;;;;14.80;7.15;;;;;;;15.57;28.27;99034.84;5040580;28;20595;-68
2021/10/27 08:43:13;;;;;;;17.02;7.13;;;;;;;16.00;27.67;99046.81;5073018;28;20036;-67
2021/10/27 08:45:40;;;;;;;11.65;6.60;;;;;;;16.03;27.45;99045.56;5073503;28;20059;-68
2021/10/27 08:48:14;;;;;;;14.10;7.22;;;;;;;16.33;27.30;99039.56;5091893;28;20047;-67
2021/10/27 08:50:40;;;;;;;9.95;6.38;;;;;;;15.36;28.47;99056.38;5073249;28;20051;-68
2021/10/27 08:53:07;;;;;;;16.17;6.78;;;;;;;15.61;28.44;99043.28;5073596;28;20071;-69
2021/10/27 08:55:33;;;;;;;12.23;6.57;;;;;;;15.92;28.09;99040.84;5091540;28;20114;-69
2021/10/27 08:58:01;;;;;;;11.52;6.30;;;;;;;15.55;28.55;99038.75;5091303;28;20126;-68
2021/10/27 09:00:32;;;;;;;12.55;6.43;;;;;;;15.84;28.02;99041.88;5073237;28;20044;-69
2021/10/27 09:03:10;;;;;;;15.82;7.03;;;;;;;15.89;27.76;99039.41;5074064;28;20090;-69
2021/10/27 09:15:09;;;;;;;13.60;7.30;;;;;;;16.85;27.06;99023.34;5073419;28;20052;-70
2021/10/27 09:34:25;;;;;;;21.50;9.25;;;;;;;16.45;27.29;99015.66;5090535;28;20031;-68
2021/10/27 10:05:13;;;;;;;16.35;8.80;;;;;;;16.65;27.33;99011.06;5074036;28;20572;-70
2021/10/27 10:07:40;;;;;;;16.48;7.55;;;;;;;16.54;27.43;99033.97;5055364;28;20453;-70
2021/10/27 10:10:09;;;;;;;17.33;8.23;;;;;;;16.84;27.06;99020.88;5055414;28;20470;-70
2021/10/27 10:12:41;;;;;;;17.13;8.25;;;;;;;17.29;26.72;99006.41;5071584;28;20064;-70
2021/10/27 10:15:08;;;;;;;16.95;7.85;;;;;;;17.02;26.88;99012.13;5071850;28;20096;-67
2021/10/27 10:17:40;;;;;;;13.48;7.20;;;;;;;17.10;27.00;99011.91;5055512;28;20052;-69
2021/10/27 10:20:10;;;;;;;13.02;8.13;;;;;;;17.06;27.23;98989.19;5055468;28;20046;-69
2021/10/27 10:22:40;;;;;;;14.50;7.85;;;;;;;16.50;27.85;99003.25;5037780;28;20040;-69
2021/10/27 10:25:19;;;;;;;17.00;8.18;;;;;;;17.07;27.60;98999.72;5054412;28;20505;-69
2021/10/27 10:27:55;;;;;;;16.35;8.07;;;;;;;17.43;26.92;98997.22;5089325;28;20036;-69
2021/10/27 10:30:36;;;;;;;14.35;7.25;;;;;;;17.43;27.05;98993.72;5088936;28;20127;-69
2021/10/27 10:33:07;;;;;;;15.10;7.70;;;;;;;17.21;27.43;98995.09;5086728;28;20044;-69
2021/10/27 10:38:25;;;;;;;17.98;8.00;;;;;;;16.70;27.86;99008.56;5068860;28;20044;-69
2021/10/27 11:38:36;;;;;;;18.58;9.52;;;;;;;16.78;28.79;98986.88;5042988;28;20462;-67
2021/10/27 11:41:00;;;;;;;18.75;10.18;;;;;;;15.63;30.29;99023.34;5072550;28;20416;-67
2021/10/27 11:43:36;;;;;;;22.73;9.35;;;;;;;16.65;29.03;99003.81;5071386;28;20579;-67
2021/10/27 11:51:12;;;;;;;18.92;9.18;;;;;;;17.48;27.97;99012.72;5091977;28;20375;-66
2021/10/27 11:53:38;;;;;;;17.03;9.60;;;;;;;17.02;28.63;99007.56;5057670;28;20036;-66
2021/10/27 11:56:12;;;;;;;17.00;9.18;;;;;;;17.48;28.18;99010.84;5041196;28;20050;-67
2021/10/27 11:58:41;;;;;;;19.75;9.85;;;;;;;17.04;28.54;99010.88;5041172;28;20447;-66
2021/10/27 12:01:12;;;;;;;31.85;10.40;;;;;;;16.13;29.17;99029.91;5074527;28;20077;-67
2021/10/27 12:03:40;;;;;;;13.40;8.70;;;;;;;16.11;29.83;98959.66;5074174;28;20040;-66
2021/10/27 12:06:13;;;;;;;15.60;8.88;;;;;;;16.06;30.16;99011.16;5092797;28;20043;-67
2021/10/27 12:09:03;;;;;;;19.73;9.82;;;;;;;16.23;30.19;99008.88;5058720;28;20066;-67
2021/10/27 12:19:29;;;;;;;15.90;8.52;;;;;;;17.28;28.74;99012.00;5091770;28;20044;-68
2021/10/27 12:22:06;;;;;;;19.30;8.70;;;;;;;17.54;28.39;99015.38;5092196;28;20040;-68
2021/10/27 12:24:36;;;;;;;;;;;;;;;17.29;28.60;99010.94;5074423;28;20040;-68
2021/10/27 12:28:00;;;;;;;15.73;8.15;;;;;;;17.46;28.42;99020.16;5091808;28;20287;-67
2021/10/27 12:30:17;;;;;;;14.15;8.02;;;;;;;16.80;29.13;99038.44;5088697;28;20523;-67
2021/10/27 12:32:54;;;;;;;15.93;8.63;;;;;;;17.01;29.21;99021.19;5073932;28;20036;-67
2021/10/27 12:35:26;;;;;;;18.70;8.75;;;;;;;17.29;28.65;99029.72;5056455;28;20052;-66
2021/10/27 12:37:56;;;;;;;15.63;8.23;;;;;;;16.72;29.13;99036.81;5056754;28;20039;-66
2021/10/27 12:40:24;;;;;;;17.35;7.82;;;;;;;16.95;28.74;99041.66;5057743;28;20157;-67
2021/10/27 12:43:06;;;;;;;16.90;8.80;;;;;;;17.64;28.37;99036.34;5091515;28;20051;-68
2021/10/27 12:45:49;;;;;;;15.40;8.10;;;;;;;17.49;28.75;99030.47;5040383;28;20067;-67
2021/10/27 12:48:21;;;;;;;15.18;8.48;;;;;;;16.98;28.96;99043.09;5073079;28;20051;-67
2021/10/27 12:50:53;;;;;;;14.63;8.32;;;;;;;17.05;29.42;99035.84;5039820;28;20367;-66
2021/10/27 12:53:50;;;;;;;15.93;8.20;;;;;;;17.03;29.44;99040.59;5072905;28;20051;-67
2021/10/27 12:56:25;;;;;;;14.93;8.25;;;;;;;17.14;29.33;99056.03;5040285;28;20052;-67
2021/10/27 12:59:07;;;;;;;15.45;8.05;;;;;;;17.24;29.15;99042.97;5056138;28;20145;-67
2021/10/27 13:01:52;;;;;;;13.38;7.63;;;;;;;16.41;30.27;99063.47;5072699;28;20066;-67
2021/10/27 13:04:42;;;;;;;16.60;7.82;;;;;;;16.81;30.24;99070.41;5071174;28;20063;-68
2021/10/27 13:07:19;;;;;;;17.67;8.20;;;;;;;16.77;29.54;99069.16;5089684;28;20071;-67
2021/10/27 13:31:40;;;;;;;17.55;7.68;;;;;;;16.96;29.81;99104.22;5061432;28;20040;-67
2021/10/27 13:34:07;;;;;;;16.48;8.52;;;;;;;16.88;29.80;99110.63;5073173;28;20407;-67
2021/10/27 13:36:33;;;;;;;20.10;7.57;;;;;;;17.17;29.56;99112.78;5072678;28;20070;-67
2021/10/27 13:39:00;;;;;;;17.75;8.93;;;;;;;17.00;29.76;99105.41;5039394;28;20075;-68
2021/10/27 13:41:26;;;;;;;18.80;7.88;;;;;;;17.03;29.77;99100.47;5072680;28;20087;-68
2021/10/27 13:44:19;;;;;;;15.35;7.75;;;;;;;16.73;30.41;99105.50;5057183;28;20043;-72
2021/10/27 13:47:27;;;;;;;18.17;8.18;;;;;;;16.81;30.33;99104.44;5090756;28;20240;-70
2021/10/27 14:06:10;;;;;;;15.68;6.97;;;;;;;16.71;31.50;99109.44;5038294;28;20092;-72
2021/10/27 14:40:35;;;;;;;14.32;7.25;;;;;;;16.05;33.07;99124.69;5058056;28;20044;-73
2021/10/27 15:20:56;;;;;;;19.77;7.63;;;;;;;16.55;32.26;99160.81;5045127;28;20032;-72
2021/10/27 15:23:32;;;;;;;14.10;7.55;;;;;;;16.57;31.93;99156.06;5042254;28;20040;-72
2021/10/27 15:29:07;;;;;;;13.18;6.90;;;;;;;16.31;32.65;99158.72;5044769;28;20498;-72
2021/10/27 15:44:45;;;;;;;15.90;7.78;;;;;;;16.16;32.94;99158.91;5057455;28;20047;-72
2021/10/27 15:52:38;;;;;;;13.80;7.47;;;;;;;16.12;33.26;99156.84;5057606;28;20044;-69
2021/10/27 15:55:13;;;;;;;13.85;7.18;;;;;;;15.87;33.49;99170.00;5024385;28;20048;-70
2021/10/27 15:57:39;;;;;;;14.32;7.00;;;;;;;16.47;32.53;99169.88;5057586;28;20131;-70
2021/10/27 16:00:05;;;;;;;11.80;6.95;;;;;;;16.81;32.30;99160.75;5041442;28;20134;-70
2021/10/27 16:02:31;;;;;;;13.25;7.20;;;;;;;16.55;32.48;99167.00;5092583;28;20139;-68
2021/10/27 16:04:57;;;;;;;15.63;7.57;;;;;;;16.28;33.17;99157.25;5021398;28;20044;-72
2021/10/27 16:07:25;;;;;;;14.98;7.50;;;;;;;15.98;33.94;99142.63;5054961;28;20048;-71
2021/10/27 16:09:52;;;;;;;11.48;7.00;;;;;;;16.12;33.43;99146.97;5038526;28;20094;-73
2021/10/27 16:12:18;;;;;;;13.27;7.68;;;;;;;15.67;34.53;99153.06;5069975;28;20063;-71
2021/10/27 16:14:46;;;;;;;14.32;7.88;;;;;;;15.27;35.57;99161.13;5028812;28;20043;-70
2021/10/27 16:17:12;;;;;;;12.82;7.68;;;;;;;16.01;34.12;99157.44;5053605;28;20063;-73
2021/10/27 16:19:38;;;;;;;15.93;7.53;;;;;;;16.38;33.57;99155.00;5020831;28;20050;-72
2021/10/27 16:22:03;;;;;;;11.35;7.28;;;;;;;15.76;34.80;99159.88;5053583;28;20044;-71
2021/10/27 16:24:29;;;;;;;17.42;7.43;;;;;;;16.20;33.99;99160.16;5036065;28;20072;-71